首页
METAR-TAF:

METAR-TAF

机场 :

麥克默里堡國際機場

Fort McMurray, 艾伯塔, 加拿大

纬度: 56-39N, 经度: 111-13W, 海拔: 369米

当前天气观测

该预报发布于38分钟前的22:00 UTC
风速5节,风向
温度 -25°C
湿度 76%
气压 1021 hPa
能見度: 14.5公里
天空无云

METAR: CYMM 112200Z AUTO 09005KT 9SM CLR M25/M28 A3016 RMK SLP266

时间: 15:38 (22:38 UTC)

预报

该预报发布于4小时和0分钟前的18:38 UTC
预报有效从11日的 19点(UTC)到 12日的 07点(UTC)
风速10节,风向
能見度: 10公里
散云层高于13000英尺
短暂存在
从 11日的 19点(UTC)到 12日的 07点(UTC)
多云层高于13000英尺

TAF: CYMM 111838Z 1119/1207 08010KT P6SM SCT130 TEMPO 1119/1207 BKN130 RMK FCST BASED ON AUTO OBS. NXT FCST BY 120100Z

超过4000个机场的气象观测和天气预报(METAR&TAF报告)。

可查询的气象台以黄色和红色小点在地图上表示。

将鼠标移到小点上方,可查看气象台名称。

然后点击查看天气观测和预报。

如需切换地图:点击带黑十字的绿色按钮放大地图;点击带横线的绿色按钮缩小地图;或者点击绿色箭头查看邻近地区的地图。


METAR-TAF: